AirNav   Pilot Hours Calculator
 
 805 users online  

S23 Ione Municipal Airport
Ione, Washington, USA

GOING TO IONE?


FAA INFORMATION EFFECTIVE 28 MARCH 2019

Location

FAA Identifier: S23
Lat/Long: 48-42-30.3800N / 117-24-47.2700W
48-42.506333N / 117-24.787833W
48.7084389 / -117.4131306
(estimated)
Elevation: 2109.5 ft. / 643 m (estimated)
Variation: 20E (1985)
From city: 2 miles S of IONE, WA
Time zone: UTC -7 (UTC -8 during Standard Time)
Zip code: 99139

Airport Operations

Airport use: Open to the public
Activation date: 08/1950
Control tower: no
ARTCC: SEATTLE CENTER
FSS: SEATTLE FLIGHT SERVICE STATION
NOTAMs facility: SEA (NOTAM-D service available)
Attendance: UNATNDD
Wind indicator: lighted
Segmented circle: no
Lights: SS-SR
Beacon: white-green (lighted land airport)
Operates sunset to sunrise.

Airport Communications

CTAF: 122.9

Nearby radio navigation aids

NDB name  Hdg/Dist  Freq  Var  ID
IONEat field37921EION .. --- -.

Airport Services

Parking: tiedowns
Airframe service: NONE
Powerplant service: NONE
Bottled oxygen: NONE
Bulk oxygen: NONE

Runway Information

Runway 15/33

Dimensions: 3643 x 45 ft. / 1110 x 14 m
Surface: asphalt, in good condition
Runway edge lights: medium intensity
Runway edge markings: RWY 15/33 MARKINGS ARE FADED.
RUNWAY 15  RUNWAY 33
Latitude: 48-42.798500N48-42.214167N
Longitude: 117-24.887500W117-24.688167W
Elevation: 2109.5 ft.2106.2 ft.
Gradient: 0.1%0.1%
Traffic pattern: leftleft
Displaced threshold: 222 ft.no
Declared distances: TORA:3421 TODA:3421 ASDA:3421 LDA:3421TORA:3644 TODA:3644 ASDA:3644 LDA:3421
Markings: basic, in poor conditionbasic, in poor condition
Obstructions: 8 ft. fence, 210 ft. from runway, 1:1 slope to clearnone
RWY 33 HAS BRUSH 9 FT HIGH 134 FT FROM RWY END AND 46 FT RIGHT.

Helipad H1

Dimensions: 60 x 60 ft. / 18 x 18 m
Surface: concrete, in good condition
Runway edge lights: medium intensity
Runway edge markings: H1 MARKINGS ARE FADED.
Traffic pattern: leftleft
Markings: basic, in poor condition

Airport Ownership and Management from official FAA records

Ownership: Publicly-owned
Owner: CITY OF IONE
PO BOX 498
IONE, WA 99139
Phone 509-442-3611
Manager: JOHN REDINGER
PO BOX 498
IONE, WA 99139
Phone 509-442-3416

Airport Operational Statistics

Aircraft based on the field: 4
Single engine airplanes: 4
    
Aircraft operations: avg 52/week *
74% transient general aviation
26% local general aviation
* for 12-month period ending 31 December 2017

Additional Remarks

WILDLIFE INVOF RY.
ARPT USED FOR SEASONAL WILDLAND FIRE SPT

Instrument Procedures

There are no published instrument procedures at S23.

Some nearby airports with instrument procedures:

KSZT - Sandpoint Airport (42 nm SE)
65S - Boundary County Airport (44 nm E)
KDEW - Deer Park Airport (44 nm S)
KCOE - Coeur d'Alene Airport - Pappy Boyington Field (61 nm SE)
KSFF - Felts Field Airport (62 nm S)
 
Loc | Ops | Rwys | IFR | FBO | Links
Com | Nav | Svcs | Stats | Notes
Area around S23 (Ione Municipal Airport)
 
Road maps at: MapQuest Bing Google
 
Aerial photo
WARNING: Photo may not be current or correct
Aerial photo of S23 (Ione Municipal Airport)
Photo taken 13-Sep-2009

Do you have a better or more recent aerial photo of Ione Municipal Airport that you would like to share? If so, please send us your photo.

 
Sectional chart

 
Airport distance calculator
Flying to Ione Municipal Airport? Find the distance to fly.

From to S23

Sunrise and sunset
Times for 22-Apr-2019
 Local
(UTC-7)
 Zulu
(UTC)
Morning civil twilight05:1212:12
Sunrise05:4612:46
Sunset19:5002:50
Evening civil twilight20:2403:24

Current date and time
Zulu (UTC)  23-Apr-2019 03:06:13
Local (UTC-7)  22-Apr-2019 20:06:13
 
METAR
CYCG 
35nm N 
230200Z 35011KT 15SM SCT075 BKN095 OVC170 10/02 A3007 RMK AC4AC3AC1 SLP198
KSZT 
42nm SE 
230255Z AUTO 21003KT 10SM SCT050 OVC065 15/00 A3009 RMK AO2
CWJR 
42nm NE 
230200Z AUTO 33007KT 13/04 RMK AO1 PK WND 31017/0118 SLP197 T01330043 58001
K65S 
44nm E 
230250Z AUTO 00000KT 10SM FEW060 BKN110 15/02 A3007 RMK AO2
KDEW 
45nm S 
230253Z AUTO 20007KT 10SM BKN065 OVC100 15/M01 A3010 RMK AO2 SLP195 T01501006 56007
CWNM 
48nm N 
230200Z AUTO 08002KT 12/06 RMK AO1 SLP200 T01180055 58004
TAF
CYCG 
35nm N 
230038Z 2301/2304 34006KT P6SM BKN080 OVC120 RMK NXT FCST WILL BE ISSUED AT 231445Z
NOTAMs
Click for the latest NOTAMs
NOTAMs are issued by the DoD/FAA and will open in a separate window not controlled by AirNav.

 

 
 

Would you like to see your business listed on this page?

 If your business provides an interesting product or service to pilots, flight crews, aircraft, or users of the Ione Municipal Airport, you should consider listing it here.  To start the listing process, click on the button below
 
Add a business
 

Other Pages about Ione Municipal Airport

Update a link
 
Copyright © AirNav, LLC. All rights reserved. Privacy Policy  Contact